Time;durP1;ratioP1;P1;durP2;ratioP2;P2;SDS_P1;SDS_P2;PMS_P1;PMS_P2;Temp;Humidity;BMP_temperature;BMP_pressure;BME280_temperature;BME280_humidity;BME280_pressure;Samples;Min_cycle;Max_cycle;Signal;HPM_P1;HPM_P2
2023/08/01 00:00:39;;;;;;;;;;;16.80;76.10;;;;;;4135483;28;20025;-83
2023/08/01 00:02:42;;;;;;;;;;;16.80;76.20;;;;;;4138898;28;19984;-83
2023/08/01 00:04:42;;;;;;;;;;;16.80;76.30;;;;;;4140588;28;19933;-84
2023/08/01 00:06:43;;;;;;;;;;;16.80;76.10;;;;;;4136152;28;19913;-84
2023/08/01 00:08:43;;;;;;;;;;;16.80;75.90;;;;;;4125080;28;19965;-83
2023/08/01 00:10:44;;;;;;;;;;;16.80;76.20;;;;;;4137761;28;19925;-83
2023/08/01 00:12:45;;;;;;;;;;;16.70;77.10;;;;;;4138207;28;19918;-84
2023/08/01 00:14:45;;;;;;;;;;;16.80;76.80;;;;;;4124922;28;19961;-83
2023/08/01 00:16:46;;;;;;;;;;;16.70;76.20;;;;;;4137632;28;19991;-84
2023/08/01 00:18:46;;;;;;;;;;;16.70;76.20;;;;;;4125542;28;19921;-83
2023/08/01 00:20:47;;;;;;;;;;;16.70;77.10;;;;;;4127872;28;20686;-84
2023/08/01 00:22:48;;;;;;;;;;;16.80;76.40;;;;;;4139471;28;19921;-83
2023/08/01 00:24:48;;;;;;;;;;;16.70;76.50;;;;;;4137294;28;19922;-83
2023/08/01 00:26:49;;;;;;;;;;;16.70;76.70;;;;;;4136559;28;19924;-84
2023/08/01 00:28:50;;;;;;;;;;;16.70;76.30;;;;;;4137071;28;19913;-84
2023/08/01 00:30:51;;;;;;;;;;;16.70;76.40;;;;;;4121640;28;19922;-83
2023/08/01 00:32:52;;;;;;;;;;;16.70;77.10;;;;;;4134470;28;19993;-84
2023/08/01 00:35:12;;;;;;;;;;;16.70;77.20;;;;;;4138025;28;20457;-84
2023/08/01 00:37:33;;;;;;;;;;;16.60;77.20;;;;;;4137134;28;19921;-84
2023/08/01 00:39:33;;;;;;;;;;;16.60;76.90;;;;;;4143903;28;20203;-85
2023/08/01 00:41:54;;;;;;;;;;;16.60;76.90;;;;;;4139497;28;19953;-84
2023/08/01 00:44:14;;;;;;;;;;;16.50;76.90;;;;;;4137192;28;19918;-84
2023/08/01 00:46:16;;;;;;;;;;;16.50;76.60;;;;;;4142204;28;20363;-84
2023/08/01 00:48:36;;;;;;;;;;;16.50;76.50;;;;;;4142153;28;19921;-83
2023/08/01 00:50:58;;;;;;;;;;;16.50;76.70;;;;;;4139125;28;19925;-84
2023/08/01 00:53:19;;;;;;;;;;;16.50;76.40;;;;;;4140122;28;19917;-84
2023/08/01 00:55:39;;;;;;;;;;;16.40;76.10;;;;;;4138350;28;20052;-83
2023/08/01 00:58:00;;;;;;;;;;;16.50;76.20;;;;;;4140354;28;19960;-83
2023/08/01 01:00:23;;;;;;;;;;;16.40;76.40;;;;;;4142065;28;19921;-83
2023/08/01 01:02:44;;;;;;;;;;;16.40;76.20;;;;;;4138393;28;19914;-84
2023/08/01 01:05:05;;;;;;;;;;;16.40;76.10;;;;;;4136743;28;20011;-84
2023/08/01 01:07:26;;;;;;;;;;;16.40;76.30;;;;;;4147422;28;19937;-84
2023/08/01 01:09:46;;;;;;;;;;;16.40;76.20;;;;;;4150677;28;19913;-84
2023/08/01 01:11:47;;;;;;;;;;;16.40;76.60;;;;;;4137398;28;19933;-84
2023/08/01 01:13:47;;;;;;;;;;;16.40;76.60;;;;;;4138401;28;19913;-84
2023/08/01 01:16:08;;;;;;;;;;;16.30;76.80;;;;;;4140935;28;19976;-84
2023/08/01 01:18:28;;;;;;;;;;;16.30;77.00;;;;;;4138155;28;19913;-85
2023/08/01 01:20:31;;;;;;;;;;;16.30;76.90;;;;;;4137265;28;19910;-85
2023/08/01 01:22:53;;;;;;;;;;;16.30;76.90;;;;;;4135980;28;20368;-83
2023/08/01 01:25:15;;;;;;;;;;;16.30;76.50;;;;;;4139344;28;20012;-84
2023/08/01 01:27:37;;;;;;;;;;;16.30;76.70;;;;;;4141498;28;19913;-84
2023/08/01 01:29:44;;;;;;;;;;;16.20;76.90;;;;;;4139390;28;19914;-84
2023/08/01 01:32:03;;;;;;;;;;;16.20;76.80;;;;;;4137137;28;19934;-84
2023/08/01 01:34:23;;;;;;;;;;;16.20;76.70;;;;;;4136415;28;20379;-84
2023/08/01 01:36:44;;;;;;;;;;;16.30;76.80;;;;;;4137777;28;19910;-84
2023/08/01 01:39:05;;;;;;;;;;;16.20;76.70;;;;;;4137132;28;19921;-84
2023/08/01 01:41:25;;;;;;;;;;;16.20;76.90;;;;;;4138055;28;19945;-83
2023/08/01 01:43:46;;;;;;;;;;;16.20;76.90;;;;;;4140579;28;19913;-84
2023/08/01 01:46:06;;;;;;;;;;;16.30;76.80;;;;;;4136561;28;19918;-84
2023/08/01 01:48:27;;;;;;;;;;;16.20;76.60;;;;;;4138341;28;20004;-83
2023/08/01 01:50:47;;;;;;;;;;;16.20;76.60;;;;;;4138779;28;19952;-84
2023/08/01 01:53:08;;;;;;;;;;;16.20;76.50;;;;;;4137953;28;19921;-84
2023/08/01 01:55:29;;;;;;;;;;;16.20;76.40;;;;;;4137364;28;19921;-84
2023/08/01 01:57:49;;;;;;;;;;;16.30;76.60;;;;;;4136312;28;20316;-84
2023/08/01 02:00:10;;;;;;;;;;;16.20;76.70;;;;;;4138901;28;19916;-84
2023/08/01 02:02:30;;;;;;;;;;;16.20;76.70;;;;;;4140161;28;19914;-84
2023/08/01 02:04:51;;;;;;;;;;;16.20;76.90;;;;;;4138378;28;19936;-85
2023/08/01 02:07:14;;;;;;;;;;;16.20;77.00;;;;;;4136928;28;19925;-84
2023/08/01 02:09:34;;;;;;;;;;;16.30;76.90;;;;;;4135861;28;19932;-84
2023/08/01 02:11:55;;;;;;;;;;;16.30;77.10;;;;;;4141433;28;19918;-83
2023/08/01 02:14:15;;;;;;;;;;;16.30;77.20;;;;;;4138075;28;19922;-84
2023/08/01 02:16:36;;;;;;;;;;;16.30;77.00;;;;;;4139185;28;19918;-83
2023/08/01 02:18:56;;;;;;;;;;;16.20;76.80;;;;;;4137460;28;19921;-83
2023/08/01 02:21:17;;;;;;;;;;;16.20;76.70;;;;;;4137883;28;19953;-84
2023/08/01 02:23:37;;;;;;;;;;;16.20;76.90;;;;;;4137942;28;19921;-84
2023/08/01 02:25:58;;;;;;;;;;;16.20;76.90;;;;;;4135625;28;19922;-83
2023/08/01 02:28:18;;;;;;;;;;;16.30;76.80;;;;;;4137394;28;19913;-83
2023/08/01 02:30:39;;;;;;;;;;;16.30;76.80;;;;;;4138877;28;19921;-84
2023/08/01 02:32:59;;;;;;;;;;;16.20;76.70;;;;;;4138616;28;19918;-84
2023/08/01 02:35:20;;;;;;;;;;;16.20;76.70;;;;;;4138166;28;20000;-84
2023/08/01 02:37:41;;;;;;;;;;;16.30;76.70;;;;;;4135630;28;19945;-84
2023/08/01 02:40:07;;;;;;;;;;;16.30;77.00;;;;;;4136579;28;19995;-84
2023/08/01 02:42:27;;;;;;;;;;;16.30;76.90;;;;;;4137200;28;19917;-84
2023/08/01 02:44:48;;;;;;;;;;;16.20;76.70;;;;;;4140373;28;19922;-84
2023/08/01 02:47:08;;;;;;;;;;;16.30;76.70;;;;;;4139453;28;19922;-84
2023/08/01 02:49:29;;;;;;;;;;;16.30;76.70;;;;;;4135303;28;19917;-84
2023/08/01 02:51:49;;;;;;;;;;;16.30;76.70;;;;;;4138592;28;19917;-84
2023/08/01 02:54:10;;;;;;;;;;;16.30;76.70;;;;;;4138082;28;19975;-84
2023/08/01 02:56:30;;;;;;;;;;;16.30;76.80;;;;;;4140157;28;20382;-84
2023/08/01 02:58:51;;;;;;;;;;;16.30;76.90;;;;;;4137143;28;20013;-84
2023/08/01 03:01:13;;;;;;;;;;;16.30;76.90;;;;;;4136955;28;19917;-84
2023/08/01 03:03:35;;;;;;;;;;;16.30;76.90;;;;;;4139736;28;19940;-84
2023/08/01 03:05:56;;;;;;;;;;;16.30;76.70;;;;;;4138793;28;19922;-83
2023/08/01 03:08:16;;;;;;;;;;;16.30;76.60;;;;;;4137316;28;20013;-85
2023/08/01 03:10:37;;;;;;;;;;;16.40;76.80;;;;;;4135069;28;19913;-84
2023/08/01 03:12:57;;;;;;;;;;;16.40;76.80;;;;;;4132400;28;19918;-84
2023/08/01 03:15:18;;;;;;;;;;;16.30;76.80;;;;;;4136090;28;19952;-83
2023/08/01 03:17:37;;;;;;;;;;;16.30;76.90;;;;;;4135828;28;19963;-84
2023/08/01 03:19:57;;;;;;;;;;;16.40;76.90;;;;;;4136830;28;19956;-84
2023/08/01 03:22:16;;;;;;;;;;;16.40;77.00;;;;;;4136068;28;19968;-84
2023/08/01 03:24:36;;;;;;;;;;;16.30;76.90;;;;;;4140860;28;19940;-84
2023/08/01 03:26:55;;;;;;;;;;;16.30;77.60;;;;;;4140912;28;19921;-84
2023/08/01 03:29:14;;;;;;;;;;;16.30;76.90;;;;;;4137541;28;19971;-84
2023/08/01 03:31:34;;;;;;;;;;;16.30;76.90;;;;;;4148828;28;20051;-85
2023/08/01 03:33:53;;;;;;;;;;;16.50;77.10;;;;;;4143389;28;19924;-84
2023/08/01 03:36:13;;;;;;;;;;;16.40;77.00;;;;;;4141703;28;19971;-84
2023/08/01 03:38:32;;;;;;;;;;;16.40;76.90;;;;;;4143883;28;19940;-84
2023/08/01 03:40:51;;;;;;;;;;;16.40;76.90;;;;;;4137842;28;19921;-84
2023/08/01 03:43:11;;;;;;;;;;;16.40;77.00;;;;;;4136687;28;19916;-84
2023/08/01 03:45:30;;;;;;;;;;;16.40;76.90;;;;;;4142614;28;19928;-84
2023/08/01 03:47:49;;;;;;;;;;;16.40;77.00;;;;;;4140963;28;19933;-84
2023/08/01 03:50:09;;;;;;;;;;;16.40;77.00;;;;;;4139169;28;19960;-83
2023/08/01 03:52:28;;;;;;;;;;;16.40;76.90;;;;;;4139309;28;20001;-84
2023/08/01 03:54:48;;;;;;;;;;;16.40;76.90;;;;;;4157659;28;19924;-84
2023/08/01 03:57:07;;;;;;;;;;;16.40;76.90;;;;;;4151342;28;21681;-83
2023/08/01 03:59:26;;;;;;;;;;;16.40;77.60;;;;;;4140757;28;20389;-84
2023/08/01 04:01:46;;;;;;;;;;;16.40;77.10;;;;;;4144545;28;20361;-83
2023/08/01 04:04:05;;;;;;;;;;;16.40;77.10;;;;;;4141053;28;20100;-84
2023/08/01 04:06:24;;;;;;;;;;;16.30;76.90;;;;;;4141659;28;19968;-84
2023/08/01 04:08:43;;;;;;;;;;;16.40;76.90;;;;;;4141518;28;20000;-84
2023/08/01 04:11:02;;;;;;;;;;;16.50;76.90;;;;;;4134007;28;19920;-84
2023/08/01 04:13:22;;;;;;;;;;;16.30;76.90;;;;;;4138113;28;20282;-84
2023/08/01 04:15:41;;;;;;;;;;;16.40;76.90;;;;;;4141660;28;19924;-83
2023/08/01 04:18:00;;;;;;;;;;;16.40;76.90;;;;;;4143152;28;20397;-83
2023/08/01 04:20:20;;;;;;;;;;;16.30;76.90;;;;;;4141088;28;19959;-84
2023/08/01 04:22:39;;;;;;;;;;;16.30;76.80;;;;;;4141063;28;19968;-84
2023/08/01 04:24:58;;;;;;;;;;;16.30;76.80;;;;;;4140855;28;19972;-84
2023/08/01 04:27:17;;;;;;;;;;;16.30;76.70;;;;;;4139249;28;19923;-84
2023/08/01 04:29:36;;;;;;;;;;;16.30;76.90;;;;;;4151676;28;19979;-84
2023/08/01 04:31:56;;;;;;;;;;;16.30;76.80;;;;;;4137138;28;20304;-83
2023/08/01 04:34:15;;;;;;;;;;;16.30;77.10;;;;;;4139130;28;20029;-84
2023/08/01 04:36:34;;;;;;;;;;;16.20;77.90;;;;;;4137469;28;19992;-84
2023/08/01 04:38:53;;;;;;;;;;;16.20;77.60;;;;;;4142477;28;20008;-84
2023/08/01 04:41:13;;;;;;;;;;;16.20;76.90;;;;;;4140723;28;20442;-84
2023/08/01 04:43:32;;;;;;;;;;;16.20;76.90;;;;;;4141434;28;19925;-84
2023/08/01 04:45:51;;;;;;;;;;;16.20;77.30;;;;;;4141619;28;19924;-84
2023/08/01 04:48:10;;;;;;;;;;;16.20;77.60;;;;;;4140832;28;19924;-84
2023/08/01 04:50:29;;;;;;;;;;;16.20;77.30;;;;;;4142412;28;19980;-84
2023/08/01 04:52:48;;;;;;;;;;;16.20;77.80;;;;;;4141683;28;20031;-84
2023/08/01 04:55:08;;;;;;;;;;;16.20;77.10;;;;;;4138052;28;19928;-84
2023/08/01 04:57:27;;;;;;;;;;;16.20;77.00;;;;;;4143321;28;20651;-83
2023/08/01 04:59:46;;;;;;;;;;;16.20;77.20;;;;;;4141000;28;20405;-84
2023/08/01 05:02:06;;;;;;;;;;;16.20;77.40;;;;;;4138554;28;20390;-84
2023/08/01 05:04:25;;;;;;;;;;;16.20;77.50;;;;;;4137740;28;19924;-84
2023/08/01 05:06:44;;;;;;;;;;;16.10;77.30;;;;;;4139265;28;19968;-85
2023/08/01 05:09:04;;;;;;;;;;;16.20;77.60;;;;;;4140276;28;20007;-84
2023/08/01 05:11:24;;;;;;;;;;;16.20;77.50;;;;;;4138976;28;19983;-84
2023/08/01 05:13:43;;;;;;;;;;;16.20;77.50;;;;;;4136333;28;19985;-84
2023/08/01 05:16:03;;;;;;;;;;;16.30;77.30;;;;;;4137780;28;19965;-84
2023/08/01 05:18:22;;;;;;;;;;;16.20;77.90;;;;;;4138189;28;20063;-83
2023/08/01 05:20:41;;;;;;;;;;;16.20;77.70;;;;;;4140852;28;19964;-84
2023/08/01 05:23:00;;;;;;;;;;;16.20;78.00;;;;;;4141972;28;19921;-84
2023/08/01 05:25:19;;;;;;;;;;;16.20;77.40;;;;;;4134836;28;19924;-85
2023/08/01 05:27:39;;;;;;;;;;;16.20;77.90;;;;;;4140760;28;20324;-84
2023/08/01 05:29:58;;;;;;;;;;;16.20;77.70;;;;;;4142218;28;20344;-84
2023/08/01 05:32:17;;;;;;;;;;;16.30;78.00;;;;;;4142022;28;19929;-83
2023/08/01 05:34:36;;;;;;;;;;;16.20;78.60;;;;;;4137845;28;19984;-84
2023/08/01 05:36:56;;;;;;;;;;;16.20;78.20;;;;;;4134823;28;20406;-84
2023/08/01 05:39:15;;;;;;;;;;;16.20;78.20;;;;;;4134221;28;19929;-84
2023/08/01 05:41:36;;;;;;;;;;;16.30;78.00;;;;;;4138497;28;19924;-84
2023/08/01 05:43:56;;;;;;;;;;;16.30;77.90;;;;;;4139271;28;19996;-84
2023/08/01 05:46:15;;;;;;;;;;;16.30;77.90;;;;;;4135346;28;19960;-84
2023/08/01 05:48:35;;;;;;;;;;;16.40;78.30;;;;;;4138769;28;19933;-84
2023/08/01 05:50:55;;;;;;;;;;;16.40;78.30;;;;;;4141174;28;19928;-84
2023/08/01 05:53:14;;;;;;;;;;;16.30;78.90;;;;;;4137646;28;19928;-84
2023/08/01 05:55:33;;;;;;;;;;;16.30;78.50;;;;;;4140318;28;20443;-84
2023/08/01 05:57:53;;;;;;;;;;;16.40;78.70;;;;;;4139413;28;20028;-84
2023/08/01 06:00:13;;;;;;;;;;;16.30;78.30;;;;;;4139344;28;20387;-84
2023/08/01 06:02:32;;;;;;;;;;;16.30;78.10;;;;;;4137638;28;19971;-84
2023/08/01 06:04:52;;;;;;;;;;;16.40;78.00;;;;;;4139750;28;19928;-84
2023/08/01 06:07:11;;;;;;;;;;;16.40;78.20;;;;;;4136149;28;19956;-84
2023/08/01 06:09:30;;;;;;;;;;;16.40;78.20;;;;;;4138718;28;19941;-84
2023/08/01 06:11:49;;;;;;;;;;;16.40;77.90;;;;;;4137958;28;20299;-84
2023/08/01 06:14:09;;;;;;;;;;;16.50;77.90;;;;;;4141534;28;19921;-84
2023/08/01 06:16:28;;;;;;;;;;;16.40;77.80;;;;;;4137162;28;20394;-84
2023/08/01 06:18:48;;;;;;;;;;;16.50;78.10;;;;;;4137128;28;20398;-84
2023/08/01 06:21:07;;;;;;;;;;;16.50;78.70;;;;;;4136800;28;19975;-84
2023/08/01 06:23:26;;;;;;;;;;;16.40;78.60;;;;;;4136409;28;19928;-84
2023/08/01 06:25:45;;;;;;;;;;;16.50;79.20;;;;;;4139807;28;19932;-84
2023/08/01 06:28:05;;;;;;;;;;;16.50;78.20;;;;;;4135546;28;20579;-84
2023/08/01 06:30:24;;;;;;;;;;;16.50;78.00;;;;;;4136854;28;19928;-84
2023/08/01 06:32:43;;;;;;;;;;;16.50;78.40;;;;;;4135099;28;20025;-84
2023/08/01 06:35:02;;;;;;;;;;;16.50;78.10;;;;;;4134945;28;19999;-84
2023/08/01 06:37:21;;;;;;;;;;;16.50;78.30;;;;;;4140284;28;19996;-85
2023/08/01 06:39:41;;;;;;;;;;;16.50;78.40;;;;;;4135088;28;19928;-84
2023/08/01 06:42:00;;;;;;;;;;;16.50;78.20;;;;;;4142090;28;19928;-85
2023/08/01 06:44:19;;;;;;;;;;;16.50;78.10;;;;;;4146505;28;20005;-84
2023/08/01 06:46:38;;;;;;;;;;;16.50;78.30;;;;;;4141084;28;19964;-84
2023/08/01 06:48:58;;;;;;;;;;;16.60;79.10;;;;;;4138667;28;20347;-83
2023/08/01 06:51:17;;;;;;;;;;;16.60;78.60;;;;;;4138177;28;19927;-84
2023/08/01 06:53:36;;;;;;;;;;;16.50;78.30;;;;;;4138528;28;19993;-83
2023/08/01 06:55:55;;;;;;;;;;;16.60;78.40;;;;;;4132204;28;21728;-85
2023/08/01 06:58:15;;;;;;;;;;;16.60;78.40;;;;;;4137637;28;20446;-84
2023/08/01 07:00:34;;;;;;;;;;;16.50;78.40;;;;;;4140046;28;19947;-84
2023/08/01 07:02:53;;;;;;;;;;;16.50;78.30;;;;;;4135265;28;20027;-84
2023/08/01 07:05:12;;;;;;;;;;;16.60;78.50;;;;;;4140372;28;19933;-84
2023/08/01 07:07:31;;;;;;;;;;;16.60;78.80;;;;;;4137238;28;19921;-84
2023/08/01 07:09:51;;;;;;;;;;;16.50;78.20;;;;;;4139854;28;19960;-85
2023/08/01 07:12:10;;;;;;;;;;;16.60;78.40;;;;;;4138038;28;20014;-84
2023/08/01 07:14:29;;;;;;;;;;;16.60;79.60;;;;;;4136305;28;19972;-86
2023/08/01 07:16:49;;;;;;;;;;;16.50;78.40;;;;;;4135176;28;19985;-84
2023/08/01 07:19:08;;;;;;;;;;;16.60;78.40;;;;;;4136517;28;19999;-84
2023/08/01 07:21:28;;;;;;;;;;;16.60;78.40;;;;;;4133302;28;19920;-84
2023/08/01 07:23:48;;;;;;;;;;;16.60;78.80;;;;;;4146249;28;19928;-84
2023/08/01 07:26:07;;;;;;;;;;;16.60;78.80;;;;;;4135047;28;19980;-84
2023/08/01 07:28:26;;;;;;;;;;;16.60;78.90;;;;;;4130554;28;19968;-83
2023/08/01 07:30:46;;;;;;;;;;;16.60;78.80;;;;;;4130606;28;19923;-84
2023/08/01 07:33:05;;;;;;;;;;;16.60;78.90;;;;;;4130614;28;19992;-84
2023/08/01 07:35:24;;;;;;;;;;;16.70;79.10;;;;;;4135559;28;20007;-84
2023/08/01 07:37:43;;;;;;;;;;;16.70;79.50;;;;;;4134291;28;19928;-84
2023/08/01 07:40:03;;;;;;;;;;;16.80;80.20;;;;;;4132173;28;19972;-86
2023/08/01 07:42:22;;;;;;;;;;;16.80;80.00;;;;;;4135055;28;19920;-84
2023/08/01 07:44:41;;;;;;;;;;;16.90;81.10;;;;;;4133497;28;19975;-84
2023/08/01 07:47:00;;;;;;;;;;;16.90;80.50;;;;;;4132530;28;19927;-84
2023/08/01 07:49:19;;;;;;;;;;;17.00;80.80;;;;;;4135277;28;19925;-84
2023/08/01 07:51:38;;;;;;;;;;;17.10;81.70;;;;;;4136072;28;20023;-84
2023/08/01 07:53:58;;;;;;;;;;;17.20;81.10;;;;;;4137244;28;19925;-84
2023/08/01 07:56:17;;;;;;;;;;;17.20;80.90;;;;;;4133051;28;20009;-84
2023/08/01 07:58:36;;;;;;;;;;;17.30;80.80;;;;;;4129488;28;20005;-84
2023/08/01 08:00:37;;;;;;;;;;;17.40;80.90;;;;;;4136062;28;19956;-84
2023/08/01 08:02:37;;;;;;;;;;;17.50;80.70;;;;;;4129083;28;19918;-84
2023/08/01 08:04:38;;;;;;;;;;;17.50;80.80;;;;;;4134796;28;19922;-84
2023/08/01 08:06:38;;;;;;;;;;;17.50;80.60;;;;;;4134724;28;19977;-84
2023/08/01 08:08:39;;;;;;;;;;;17.70;80.80;;;;;;4133866;28;20024;-84
2023/08/01 08:10:39;;;;;;;;;;;17.70;81.20;;;;;;4140126;28;20012;-84
2023/08/01 08:12:40;;;;;;;;;;;17.80;81.30;;;;;;4140095;28;19957;-84
2023/08/01 08:14:41;;;;;;;;;;;17.80;80.60;;;;;;4141677;28;19909;-84
2023/08/01 08:16:41;;;;;;;;;;;17.90;80.30;;;;;;4138770;28;19968;-83
2023/08/01 08:18:42;;;;;;;;;;;17.90;80.20;;;;;;4140088;28;19918;-83
2023/08/01 08:20:44;;;;;;;;;;;17.90;80.00;;;;;;4139355;28;19944;-82
2023/08/01 08:22:44;;;;;;;;;;;18.00;80.00;;;;;;4142052;28;20265;-84
2023/08/01 08:24:45;;;;;;;;;;;18.20;80.00;;;;;;4141194;28;19983;-84
2023/08/01 08:26:45;;;;;;;;;;;18.10;79.70;;;;;;4147290;28;19921;-84
2023/08/01 08:28:46;;;;;;;;;;;18.10;79.90;;;;;;4142538;28;19917;-84
2023/08/01 08:30:47;;;;;;;;;;;18.10;79.70;;;;;;4139067;28;20447;-84
2023/08/01 08:32:47;;;;;;;;;;;18.20;79.30;;;;;;4143816;28;20443;-83
2023/08/01 08:34:48;;;;;;;;;;;18.20;79.70;;;;;;4142814;28;19918;-84
2023/08/01 08:36:50;;;;;;;;;;;18.30;80.00;;;;;;4142737;28;19921;-83
2023/08/01 08:38:51;;;;;;;;;;;18.30;80.30;;;;;;4139636;28;19914;-83
2023/08/01 08:41:06;;;;;;;;;;;18.50;80.30;;;;;;4140377;28;19917;-84
2023/08/01 08:43:08;;;;;;;;;;;18.50;80.10;;;;;;4139297;28;19913;-82
2023/08/01 08:45:11;;;;;;;;;;;18.60;80.50;;;;;;4138081;28;19964;-83
2023/08/01 08:47:15;;;;;;;;;;;18.70;80.10;;;;;;4146989;28;20167;-83
2023/08/01 08:49:16;;;;;;;;;;;18.70;79.60;;;;;;4133251;28;20020;-84
2023/08/01 08:51:35;;;;;;;;;;;18.70;79.30;;;;;;4137071;28;19918;-83
2023/08/01 08:53:40;;;;;;;;;;;18.80;78.10;;;;;;4133813;28;20037;-83
2023/08/01 08:56:01;;;;;;;;;;;18.90;76.90;;;;;;4136915;28;19921;-84
2023/08/01 08:58:23;;;;;;;;;;;18.80;76.20;;;;;;4138754;28;19961;-82
2023/08/01 09:00:44;;;;;;;;;;;18.80;76.00;;;;;;4134696;28;19925;-83
2023/08/01 09:03:04;;;;;;;;;;;18.90;75.70;;;;;;4135357;28;19921;-82
2023/08/01 09:05:27;;;;;;;;;;;18.90;75.60;;;;;;4134608;28;19928;-83
2023/08/01 09:07:49;;;;;;;;;;;18.80;75.30;;;;;;4131459;28;19928;-83
2023/08/01 09:10:10;;;;;;;;;;;18.90;75.40;;;;;;4137695;28;19914;-83
2023/08/01 09:12:34;;;;;;;;;;;18.80;75.10;;;;;;4138033;28;19940;-83
2023/08/01 09:14:56;;;;;;;;;;;18.80;74.50;;;;;;4135962;28;19928;-83
2023/08/01 09:17:18;;;;;;;;;;;18.90;74.30;;;;;;4136559;28;19983;-82
2023/08/01 09:19:39;;;;;;;;;;;18.80;74.20;;;;;;4137593;28;20303;-83
2023/08/01 09:21:59;;;;;;;;;;;18.80;74.10;;;;;;4138142;28;19918;-82
2023/08/01 09:24:21;;;;;;;;;;;18.90;74.10;;;;;;4138983;28;19929;-83
2023/08/01 09:26:42;;;;;;;;;;;18.80;74.30;;;;;;4138515;28;19918;-82
2023/08/01 09:29:02;;;;;;;;;;;18.80;73.70;;;;;;4138799;28;19919;-82
2023/08/01 09:31:27;;;;;;;;;;;18.90;73.90;;;;;;4135940;28;19928;-83
2023/08/01 09:33:48;;;;;;;;;;;18.90;74.10;;;;;;4138106;28;19921;-82
2023/08/01 09:36:08;;;;;;;;;;;18.90;73.80;;;;;;4143391;28;19916;-82
2023/08/01 09:38:33;;;;;;;;;;;18.90;73.90;;;;;;4146675;28;20202;-83
2023/08/01 09:40:54;;;;;;;;;;;19.00;74.10;;;;;;4138387;28;19952;-83
2023/08/01 09:43:14;;;;;;;;;;;19.10;72.60;;;;;;4136938;28;20315;-83
2023/08/01 09:45:35;;;;;;;;;;;19.10;72.60;;;;;;4140669;28;19977;-83
2023/08/01 09:47:55;;;;;;;;;;;19.00;71.50;;;;;;4139121;28;19929;-83
2023/08/01 09:50:20;;;;;;;;;;;19.00;70.50;;;;;;4143693;28;19928;-82
2023/08/01 09:52:40;;;;;;;;;;;18.90;70.90;;;;;;4144685;28;19918;-82
2023/08/01 09:55:01;;;;;;;;;;;18.90;71.10;;;;;;4152968;28;19913;-82
2023/08/01 09:57:22;;;;;;;;;;;18.80;71.00;;;;;;4138998;28;19924;-85
2023/08/01 09:59:41;;;;;;;;;;;18.90;71.10;;;;;;4135625;28;19924;-83
2023/08/01 10:02:01;;;;;;;;;;;18.80;71.40;;;;;;4135212;28;20670;-82
2023/08/01 10:04:22;;;;;;;;;;;18.80;71.60;;;;;;4135746;28;20060;-83
2023/08/01 10:06:44;;;;;;;;;;;18.70;71.90;;;;;;4140668;28;19947;-83
2023/08/01 10:09:03;;;;;;;;;;;18.80;72.40;;;;;;4135892;28;19927;-83
2023/08/01 10:11:23;;;;;;;;;;;18.80;72.60;;;;;;4137952;28;20489;-83
2023/08/01 10:13:43;;;;;;;;;;;18.90;73.20;;;;;;4136717;28;20068;-82
2023/08/01 10:16:02;;;;;;;;;;;19.00;73.90;;;;;;4138852;28;20340;-83
2023/08/01 10:18:22;;;;;;;;;;;19.00;74.00;;;;;;4138630;28;20665;-83
2023/08/01 10:20:41;;;;;;;;;;;19.20;74.70;;;;;;4138272;28;20247;-83
2023/08/01 10:23:01;;;;;;;;;;;19.30;74.00;;;;;;4135498;28;19925;-83
2023/08/01 10:25:21;;;;;;;;;;;19.40;73.30;;;;;;4136960;28;19971;-83
2023/08/01 10:27:41;;;;;;;;;;;19.50;73.90;;;;;;4138537;28;19924;-83
2023/08/01 10:30:01;;;;;;;;;;;19.60;72.80;;;;;;4135712;28;20029;-83
2023/08/01 10:32:27;;;;;;;;;;;19.70;72.60;;;;;;4136300;28;19921;-85
2023/08/01 10:34:52;;;;;;;;;;;19.70;71.70;;;;;;4132411;28;20178;-82
2023/08/01 10:37:12;;;;;;;;;;;19.70;71.30;;;;;;4137789;28;19925;-83
2023/08/01 10:39:31;;;;;;;;;;;19.70;70.20;;;;;;4132982;28;19947;-83
2023/08/01 10:41:58;;;;;;;;;;;19.70;69.80;;;;;;4137179;28;19936;-84
2023/08/01 10:44:17;;;;;;;;;;;19.60;69.70;;;;;;4138068;28;19923;-83
2023/08/01 10:46:46;;;;;;;;;;;19.50;68.60;;;;;;4133921;28;19936;-84
2023/08/01 10:49:05;;;;;;;;;;;19.50;68.60;;;;;;4136123;28;20001;-84
2023/08/01 10:51:34;;;;;;;;;;;19.40;68.40;;;;;;4136383;28;19972;-84
2023/08/01 10:53:53;;;;;;;;;;;19.30;68.50;;;;;;4137921;28;19924;-84
2023/08/01 10:56:17;;;;;;;;;;;19.20;68.70;;;;;;4136765;28;20367;-84
2023/08/01 10:58:36;;;;;;;;;;;19.20;68.90;;;;;;4141784;28;20507;-82
2023/08/01 11:00:59;;;;;;;;;;;19.10;68.80;;;;;;4139835;28;19929;-83
2023/08/01 11:03:19;;;;;;;;;;;19.10;68.80;;;;;;4140689;28;19948;-83
2023/08/01 11:05:39;;;;;;;;;;;19.00;69.10;;;;;;4144610;28;19932;-84
2023/08/01 11:07:59;;;;;;;;;;;19.00;69.30;;;;;;4139198;28;19972;-85
2023/08/01 11:10:18;;;;;;;;;;;18.90;70.00;;;;;;4131299;28;19925;-83
2023/08/01 11:12:42;;;;;;;;;;;18.90;69.50;;;;;;4134885;28;19925;-83
2023/08/01 11:15:01;;;;;;;;;;;18.90;69.80;;;;;;4136059;28;19921;-85
2023/08/01 11:17:20;;;;;;;;;;;18.80;70.00;;;;;;4136800;28;20039;-83
2023/08/01 11:19:39;;;;;;;;;;;18.80;70.30;;;;;;4132945;28;19933;-84
2023/08/01 11:22:08;;;;;;;;;;;18.80;70.50;;;;;;4132361;28;19948;-83
2023/08/01 11:24:27;;;;;;;;;;;18.80;70.50;;;;;;4133788;28;19932;-84
2023/08/01 11:26:48;;;;;;;;;;;18.70;70.60;;;;;;4138464;28;19971;-84
2023/08/01 11:29:07;;;;;;;;;;;18.80;70.80;;;;;;4131543;28;20015;-83
2023/08/01 11:31:26;;;;;;;;;;;18.70;71.00;;;;;;4137946;28;19929;-83
2023/08/01 11:33:54;;;;;;;;;;;18.70;71.10;;;;;;4139686;28;19925;-84
2023/08/01 11:36:13;;;;;;;;;;;18.70;71.60;;;;;;4140442;28;19920;-84
2023/08/01 11:38:34;;;;;;;;;;;18.70;71.80;;;;;;4138387;28;19921;-83
2023/08/01 11:40:53;;;;;;;;;;;18.70;72.20;;;;;;4140617;28;19924;-83
2023/08/01 11:43:13;;;;;;;;;;;18.80;72.50;;;;;;4142102;28;20386;-83
2023/08/01 11:45:32;;;;;;;;;;;18.80;73.40;;;;;;4145051;28;19924;-83
2023/08/01 11:47:51;;;;;;;;;;;18.80;72.90;;;;;;4143672;28;19935;-83
2023/08/01 11:50:10;;;;;;;;;;;18.90;73.20;;;;;;4142136;28;19928;-83
2023/08/01 11:52:30;;;;;;;;;;;18.90;73.00;;;;;;4140628;28;20291;-83
2023/08/01 11:54:50;;;;;;;;;;;19.00;73.20;;;;;;4142029;28;19920;-84
2023/08/01 11:57:07;;;;;;;;;;;19.00;73.10;;;;;;4144788;28;19952;-84
2023/08/01 11:59:27;;;;;;;;;;;19.10;73.70;;;;;;4144780;28;19988;-84
2023/08/01 12:01:46;;;;;;;;;;;19.10;73.50;;;;;;4144086;28;20537;-83
2023/08/01 12:04:06;;;;;;;;;;;19.20;73.30;;;;;;4141971;28;19932;-83
2023/08/01 12:06:25;;;;;;;;;;;19.20;73.20;;;;;;4141095;28;19992;-83
2023/08/01 12:08:45;;;;;;;;;;;19.30;73.90;;;;;;4137923;28;20403;-85
2023/08/01 12:11:04;;;;;;;;;;;19.30;72.60;;;;;;4133940;28;19988;-85
2023/08/01 12:13:24;;;;;;;;;;;19.30;72.30;;;;;;4140496;28;20462;-85
2023/08/01 12:15:43;;;;;;;;;;;19.30;71.70;;;;;;4141262;28;19923;-86
2023/08/01 12:18:02;;;;;;;;;;;19.30;71.40;;;;;;4142517;28;20031;-85
2023/08/01 12:20:21;;;;;;;;;;;19.20;70.90;;;;;;4136336;28;19924;-85
2023/08/01 12:22:40;;;;;;;;;;;19.20;70.80;;;;;;4138723;28;20385;-85
2023/08/01 12:25:00;;;;;;;;;;;19.20;70.80;;;;;;4144467;28;20390;-84
2023/08/01 12:27:19;;;;;;;;;;;19.10;70.80;;;;;;4142995;28;19924;-85
2023/08/01 12:29:38;;;;;;;;;;;19.10;70.60;;;;;;4140768;28;19924;-85
2023/08/01 12:31:58;;;;;;;;;;;18.90;70.50;;;;;;4138966;28;19960;-84
2023/08/01 12:34:17;;;;;;;;;;;18.90;70.10;;;;;;4147126;28;19924;-85
2023/08/01 12:36:36;;;;;;;;;;;18.80;70.60;;;;;;4150612;28;19985;-85
2023/08/01 12:38:55;;;;;;;;;;;18.70;69.40;;;;;;4156599;28;20271;-85
2023/08/01 12:41:14;;;;;;;;;;;18.60;69.20;;;;;;4143587;28;20009;-85
2023/08/01 12:43:34;;;;;;;;;;;18.60;69.90;;;;;;4141910;28;19957;-85
2023/08/01 12:45:53;;;;;;;;;;;18.50;69.20;;;;;;4147362;28;19928;-84
2023/08/01 12:48:12;;;;;;;;;;;18.30;70.00;;;;;;4146118;28;19928;-84
2023/08/01 12:50:31;;;;;;;;;;;18.20;70.20;;;;;;4141001;28;20451;-84
2023/08/01 12:52:51;;;;;;;;;;;18.20;69.60;;;;;;4141018;28;20063;-84
2023/08/01 12:55:10;;;;;;;;;;;18.10;69.60;;;;;;4138992;28;20032;-85
2023/08/01 12:57:29;;;;;;;;;;;18.00;69.80;;;;;;4140666;28;20535;-84
2023/08/01 12:59:49;;;;;;;;;;;18.00;69.90;;;;;;4138525;28;19921;-86
2023/08/01 13:01:50;;;;;;;;;;;17.90;70.00;;;;;;4135945;28;19917;-85
2023/08/01 13:03:50;;;;;;;;;;;17.90;70.30;;;;;;4139581;28;19925;-85
2023/08/01 13:05:52;;;;;;;;;;;17.90;70.40;;;;;;4125052;28;19926;-84
2023/08/01 13:07:53;;;;;;;;;;;17.80;70.50;;;;;;4139133;28;19921;-85
2023/08/01 13:09:54;;;;;;;;;;;17.80;70.80;;;;;;4137946;28;19918;-85
2023/08/01 13:11:56;;;;;;;;;;;17.70;71.00;;;;;;4123622;28;19918;-85
2023/08/01 13:13:56;;;;;;;;;;;17.80;71.20;;;;;;4139168;28;19917;-86
2023/08/01 13:15:58;;;;;;;;;;;17.70;71.30;;;;;;4136138;28;20387;-85